»·PEaware :: N1684H KTOA-KCRQ

N1684H :: KTOA-KCRQ

FLIGHT INFORMATION

Flight Status: Arrived
Operator: Privately registered:
United States
More flights under this callsign
Pilot: Anthony D. (23991)
Aircraft: PIPER PA-28 CHEROKEE ARCHER
(P28A)
More flights by this aircraft type
Origin: KTOA Zamperini
United States
Destination: KCRQ McClellan-Palomar
United States
More flights between these airports :: More routes between these airports
Route: +
File this flight plan on PilotEdge
Remarks:
Altitude:
(Current/Filed)
0ft
Speed:
(Current/Filed)
0kts
Departed: 23-Nov-19 03:16 PM
Arrived: 23-Nov-19 04:04 PM
Distance/Time
Traveled:
67nm/0:48
Distance/Time
To Go:
Arrived

Flight Plot

Page will automatically refresh every two minutes.


Map Options




Map Legend


Flown Route
Filed Route
Departure Airport
Arrival Airport
Navaid (VOR, NDB)
Fix

Horizontal Profiles

Position Reports

Time Latitude Longitude Heading Altitude Ground
Speed
23-Nov-19 15:04 33.803347 -118.344051 39 101ft 0kts
23-Nov-19 15:05 33.803349 -118.344049 39 101ft 0kts
23-Nov-19 15:06 33.803006 -118.343095 129 101ft 7kts
23-Nov-19 15:07 33.802496 -118.341261 128 101ft 7kts
23-Nov-19 15:08 33.801050 -118.339078 128 101ft 9kts
23-Nov-19 15:09 33.799426 -118.336626 129 101ft 9kts
23-Nov-19 15:10 33.798223 -118.334101 36 101ft 8kts
23-Nov-19 15:11 33.798484 -118.333472 306 101ft 0kts
23-Nov-19 15:12 33.798483 -118.333472 306 101ft 0kts
23-Nov-19 15:13 33.798490 -118.333482 306 101ft 0kts
23-Nov-19 15:14 33.799115 -118.333280 37 101ft 0kts
23-Nov-19 15:15 33.801348 -118.335551 307 110ft 66kts
23-Nov-19 15:16 33.814375 -118.354907 333 1073ft 78kts
23-Nov-19 15:17 33.828387 -118.339129 97 2036ft 90kts
23-Nov-19 15:18 33.811499 -118.317464 151 2933ft 92kts
23-Nov-19 15:19 33.790131 -118.303304 141 3822ft 87kts
23-Nov-19 15:20 33.776715 -118.278349 131 4588ft 88kts
23-Nov-19 15:21 33.762671 -118.254966 129 5316ft 86kts
23-Nov-19 15:22 33.749159 -118.229284 124 5545ft 91kts
23-Nov-19 15:23 33.738099 -118.200519 116 5541ft 95kts
23-Nov-19 15:24 33.726399 -118.172290 121 5558ft 94kts
23-Nov-19 15:25 33.713286 -118.145233 121 5546ft 96kts
23-Nov-19 15:26 33.697937 -118.120196 126 5544ft 95kts
23-Nov-19 15:27 33.683279 -118.094652 125 5571ft 93kts
23-Nov-19 15:28 33.667800 -118.069137 126 5612ft 90kts
23-Nov-19 15:29 33.652869 -118.043309 120 5591ft 93kts
23-Nov-19 15:30 33.637135 -118.018184 127 5545ft 97kts
23-Nov-19 15:31 33.622265 -117.992507 130 5568ft 96kts
23-Nov-19 15:32 33.606132 -117.967748 129 5601ft 94kts
23-Nov-19 15:33 33.591252 -117.942186 128 5614ft 95kts
23-Nov-19 15:34 33.574970 -117.917277 131 5618ft 94kts
23-Nov-19 15:35 33.560003 -117.890855 127 5599ft 96kts
23-Nov-19 15:36 33.545010 -117.864195 127 5591ft 96kts
23-Nov-19 15:37 33.529477 -117.837831 127 5585ft 97kts
23-Nov-19 15:38 33.512626 -117.813066 141 5578ft 95kts
23-Nov-19 15:39 33.494101 -117.789905 136 5576ft 96kts
23-Nov-19 15:40 33.477792 -117.764220 122 5569ft 98kts
23-Nov-19 15:41 33.460729 -117.739192 138 5552ft 97kts
23-Nov-19 15:42 33.443848 -117.713468 131 5542ft 98kts
23-Nov-19 15:43 33.428570 -117.685775 127 5534ft 100kts
23-Nov-19 15:44 33.412409 -117.658853 129 5529ft 100kts
23-Nov-19 15:45 33.396218 -117.631525 132 5528ft 100kts
23-Nov-19 15:46 33.378496 -117.605011 129 5466ft 109kts
23-Nov-19 15:47 33.359206 -117.578839 132 5550ft 101kts
23-Nov-19 15:48 33.342824 -117.551519 133 5554ft 99kts
23-Nov-19 15:49 33.325124 -117.526063 139 5563ft 98kts
23-Nov-19 15:50 33.305160 -117.503847 144 5572ft 97kts
23-Nov-19 15:51 33.284865 -117.483740 138 5247ft 96kts
23-Nov-19 15:52 33.267778 -117.459994 132 4768ft 95kts
23-Nov-19 15:53 33.254493 -117.432563 141 4290ft 93kts
23-Nov-19 15:54 33.234423 -117.412964 147 3809ft 93kts
23-Nov-19 15:55 33.217357 -117.389022 133 3333ft 94kts
23-Nov-19 15:56 33.200074 -117.366757 138 2882ft 92kts
23-Nov-19 15:57 33.181862 -117.345042 143 2371ft 92kts
23-Nov-19 15:58 33.163119 -117.324557 141 2066ft 89kts
23-Nov-19 15:59 33.146642 -117.302438 118 1589ft 91kts
23-Nov-19 16:00 33.145466 -117.272371 85 1349ft 92kts
23-Nov-19 16:01 33.134950 -117.256340 201 883ft 65kts
23-Nov-19 16:02 33.129156 -117.274567 256 339ft 49kts
23-Nov-19 16:03 33.127595 -117.279095 80 334ft 10kts
23-Nov-19 16:04 33.127526 -117.276189 167 334ft 0kts

Navigation Log

Ident Type
Flight plan parsing failed, navigation log unavailable